Time,TemperatureF,DewpointF,PressureIn,WindDirection,WindDirectionDegrees,WindSpeedMPH,WindSpeedGustMPH,Humidity,HourlyPrecipIn,Conditions,Clouds,dailyrainin,SoftwareType,DateUTC
2013-06-12 00:00:00,89.2,26.0,29.58,ESE,108,14.0,26.0,10,0.00,,,0.00,weatherlink.com 1.10,2013-06-12 06:00:00,
2013-06-12 00:15:00,88.4,25.0,29.58,East,79,12.0,27.0,10,0.00,,,0.00,weatherlink.com 1.10,2013-06-12 06:15:00,
2013-06-12 00:30:00,87.9,25.0,29.58,East,99,14.0,25.0,10,0.00,,,0.00,weatherlink.com 1.10,2013-06-12 06:30:00,
2013-06-12 00:45:00,87.8,25.0,29.58,East,95,11.0,22.0,10,0.00,,,0.00,weatherlink.com 1.10,2013-06-12 06:45:00,
2013-06-12 01:00:00,87.4,24.0,29.58,ESE,107,19.0,25.0,10,0.00,,,0.00,weatherlink.com 1.10,2013-06-12 07:00:00,
2013-06-12 01:15:00,87.1,26.0,29.58,ESE,113,16.0,24.0,11,0.00,,,0.00,weatherlink.com 1.10,2013-06-12 07:15:00,
2013-06-12 01:30:00,86.9,28.0,29.59,ESE,104,9.0,22.0,12,0.00,,,0.00,weatherlink.com 1.10,2013-06-12 07:30:00,
2013-06-12 01:45:00,85.7,33.0,29.60,East,82,11.0,19.0,15,0.00,,,0.00,weatherlink.com 1.10,2013-06-12 07:45:00,
2013-06-12 02:00:00,85.5,37.0,29.61,SW,222,5.0,15.0,18,0.00,,,0.00,weatherlink.com 1.10,2013-06-12 08:00:00,
2013-06-12 02:16:00,84.1,38.0,29.61,SSE,147,4.0,6.0,19,0.00,,,0.00,weatherlink.com 1.10,2013-06-12 08:16:00,
2013-06-12 02:31:00,83.5,37.0,29.60,SE,136,1.0,4.0,19,0.00,,,0.00,weatherlink.com 1.10,2013-06-12 08:31:00,
2013-06-12 02:46:00,83.7,34.0,29.60,SSE,158,2.0,6.0,17,0.00,,,0.00,weatherlink.com 1.10,2013-06-12 08:46:00,
2013-06-12 03:01:00,83.0,34.0,29.60,SSE,160,3.0,4.0,17,0.00,,,0.00,weatherlink.com 1.10,2013-06-12 09:01:00,
2013-06-12 03:16:00,83.2,35.0,29.59,ESE,108,2.0,4.0,18,0.00,,,0.00,weatherlink.com 1.10,2013-06-12 09:16:00,
2013-06-12 03:31:00,83.8,39.0,29.59,SSE,152,1.0,3.0,20,0.00,,,0.00,weatherlink.com 1.10,2013-06-12 09:31:00,
2013-06-12 03:46:00,83.7,40.0,29.59,SE,144,3.0,5.0,21,0.00,,,0.00,weatherlink.com 1.10,2013-06-12 09:46:00,
2013-06-12 04:01:00,84.0,40.0,29.58,SE,129,4.0,6.0,21,0.00,,,0.00,weatherlink.com 1.10,2013-06-12 10:01:00,
2013-06-12 04:16:00,84.4,40.0,29.58,SSE,155,7.0,9.0,21,0.00,,,0.00,weatherlink.com 1.10,2013-06-12 10:16:00,
2013-06-12 04:31:00,84.0,41.0,29.58,ESE,104,4.0,6.0,22,0.00,,,0.00,weatherlink.com 1.10,2013-06-12 10:31:00,
2013-06-12 04:46:00,84.3,41.0,29.58,SE,145,3.0,8.0,22,0.00,,,0.00,weatherlink.com 1.10,2013-06-12 10:46:00,
2013-06-12 05:01:00,84.1,40.0,29.57,SSE,148,4.0,7.0,21,0.00,,,0.00,weatherlink.com 1.10,2013-06-12 11:01:00,
2013-06-12 05:16:00,84.0,40.0,29.57,SSE,162,4.0,11.0,21,0.00,,,0.00,weatherlink.com 1.10,2013-06-12 11:16:00,
2013-06-12 05:31:00,83.2,39.0,29.57,SE,145,0.0,3.0,21,0.00,,,0.00,weatherlink.com 1.10,2013-06-12 11:31:00,
2013-06-12 05:46:00,82.7,39.0,29.58,East,91,9.0,12.0,21,0.00,,,0.00,weatherlink.com 1.10,2013-06-12 11:46:00,
2013-06-12 06:01:00,83.0,38.0,29.58,ESE,103,2.0,5.0,20,0.00,,,0.00,weatherlink.com 1.10,2013-06-12 12:01:00,
2013-06-12 06:16:00,82.8,39.0,29.58,East,90,9.0,14.0,21,0.00,,,0.00,weatherlink.com 1.10,2013-06-12 12:16:00,
2013-06-12 06:31:00,81.7,39.0,29.59,East,93,6.0,12.0,22,0.00,,,0.00,weatherlink.com 1.10,2013-06-12 12:31:00,
2013-06-12 06:46:00,80.9,40.0,29.60,ENE,62,6.0,11.0,23,0.00,,,0.00,weatherlink.com 1.10,2013-06-12 12:46:00,
2013-06-12 07:01:00,79.3,42.0,29.61,ESE,108,13.0,16.0,26,0.00,,,0.00,weatherlink.com 1.10,2013-06-12 13:01:00,
2013-06-12 07:16:00,80.4,43.0,29.61,ENE,72,9.0,16.0,27,0.00,,,0.00,weatherlink.com 1.10,2013-06-12 13:16:00,
2013-06-12 07:31:00,80.4,42.0,29.61,SE,126,6.0,8.0,26,0.00,,,0.00,weatherlink.com 1.10,2013-06-12 13:31:00,
2013-06-12 07:46:00,81.4,45.0,29.61,East,81,3.0,9.0,28,0.00,,,0.00,weatherlink.com 1.10,2013-06-12 13:46:00,
2013-06-12 08:01:00,81.7,47.0,29.61,ESE,112,7.0,14.0,30,0.00,,,0.00,weatherlink.com 1.10,2013-06-12 14:01:00,
2013-06-12 08:16:00,81.7,48.0,29.61,ESE,103,11.0,15.0,31,0.00,,,0.00,weatherlink.com 1.10,2013-06-12 14:16:00,
2013-06-12 08:31:00,81.8,48.0,29.62,East,84,17.0,19.0,31,0.00,,,0.00,weatherlink.com 1.10,2013-06-12 14:31:00,
2013-06-12 08:46:00,81.7,48.0,29.62,East,101,10.0,17.0,31,0.00,,,0.00,weatherlink.com 1.10,2013-06-12 14:46:00,
2013-06-12 09:01:00,82.3,48.0,29.62,ENE,65,6.0,17.0,30,0.00,,,0.00,weatherlink.com 1.10,2013-06-12 15:01:00,
2013-06-12 09:16:00,83.2,48.0,29.63,ESE,103,9.0,15.0,29,0.00,,,0.00,weatherlink.com 1.10,2013-06-12 15:16:00,
2013-06-12 09:31:00,83.6,46.0,29.62,ESE,121,7.0,14.0,27,0.00,,,0.00,weatherlink.com 1.10,2013-06-12 15:31:00,
2013-06-12 09:46:00,84.1,48.0,29.63,ESE,122,14.0,15.0,28,0.00,,,0.00,weatherlink.com 1.10,2013-06-12 15:46:00,
2013-06-12 10:01:00,83.8,49.0,29.62,ESE,114,13.0,17.0,30,0.00,,,0.00,weatherlink.com 1.10,2013-06-12 16:01:00,
2013-06-12 10:16:00,84.4,49.0,29.62,East,84,11.0,17.0,29,0.00,,,0.00,weatherlink.com 1.10,2013-06-12 16:16:00,
2013-06-12 10:31:00,85.2,49.0,29.63,SE,131,5.0,15.0,28,0.00,,,0.00,weatherlink.com 1.10,2013-06-12 16:31:00,
2013-06-12 10:47:00,87.5,47.0,29.63,SE,146,4.0,11.0,24,0.00,,,0.00,weatherlink.com 1.10,2013-06-12 16:47:00,
2013-06-12 11:01:00,88.8,45.0,29.62,ESE,102,5.0,10.0,22,0.00,,,0.00,weatherlink.com 1.10,2013-06-12 17:01:00,
2013-06-12 11:16:00,89.5,45.0,29.62,East,98,8.0,13.0,21,0.00,,,0.00,weatherlink.com 1.10,2013-06-12 17:16:00,
2013-06-12 11:31:00,89.8,45.0,29.62,East,101,11.0,13.0,21,0.00,,,0.00,weatherlink.com 1.10,2013-06-12 17:31:00,
2013-06-12 11:46:00,90.4,45.0,29.62,SE,126,9.0,13.0,21,0.00,,,0.00,weatherlink.com 1.10,2013-06-12 17:46:00,
2013-06-12 12:01:00,91.7,45.0,29.61,ENE,69,7.0,13.0,20,0.00,,,0.00,weatherlink.com 1.10,2013-06-12 18:01:00,
2013-06-12 12:16:00,92.7,45.0,29.61,North,356,4.0,11.0,19,0.00,,,0.00,weatherlink.com 1.10,2013-06-12 18:16:00,
2013-06-12 12:31:00,92.4,45.0,29.60,ESE,117,4.0,13.0,19,0.00,,,0.00,weatherlink.com 1.10,2013-06-12 18:31:00,
2013-06-12 12:46:00,93.9,46.0,29.60,SSE,148,8.0,14.0,19,0.00,,,0.00,weatherlink.com 1.10,2013-06-12 18:46:00,
2013-06-12 13:02:00,95.2,42.0,29.59,WSW,255,5.0,14.0,16,0.00,,,0.00,weatherlink.com 1.10,2013-06-12 19:02:00,
2013-06-12 13:17:00,95.7,43.0,29.59,SE,138,7.0,15.0,16,0.00,,,0.00,weatherlink.com 1.10,2013-06-12 19:17:00,
2013-06-12 13:32:00,96.1,41.0,29.59,SE,145,11.0,14.0,15,0.00,,,0.00,weatherlink.com 1.10,2013-06-12 19:32:00,
2013-06-12 13:47:00,96.4,42.0,29.58,SE,130,5.0,16.0,15,0.00,,,0.00,weatherlink.com 1.10,2013-06-12 19:47:00,
2013-06-12 14:02:00,96.8,40.0,29.57,SSE,150,2.0,11.0,14,0.00,,,0.00,weatherlink.com 1.10,2013-06-12 20:02:00,
2013-06-12 14:17:00,98.1,39.0,29.57,SE,137,4.0,13.0,13,0.00,,,0.00,weatherlink.com 1.10,2013-06-12 20:17:00,
2013-06-12 14:32:00,97.8,41.0,29.56,East,91,3.0,15.0,14,0.00,,,0.00,weatherlink.com 1.10,2013-06-12 20:32:00,
2013-06-12 14:47:00,98.3,40.0,29.55,East,96,7.0,15.0,13,0.00,,,0.00,weatherlink.com 1.10,2013-06-12 20:47:00,
2013-06-12 15:02:00,99.2,38.0,29.55,East,99,10.0,15.0,12,0.00,,,0.00,weatherlink.com 1.10,2013-06-12 21:02:00,
2013-06-12 15:17:00,99.3,38.0,29.54,WNW,294,6.0,12.0,12,0.00,,,0.00,weatherlink.com 1.10,2013-06-12 21:17:00,
2013-06-12 15:32:00,100.4,37.0,29.54,East,92,5.0,10.0,11,0.00,,,0.00,weatherlink.com 1.10,2013-06-12 21:32:00,
2013-06-12 15:47:00,100.0,39.0,29.53,NW,318,2.0,6.0,12,0.00,,,0.00,weatherlink.com 1.10,2013-06-12 21:47:00,
2013-06-12 16:02:00,101.0,37.0,29.53,WSW,249,4.0,14.0,11,0.00,,,0.00,weatherlink.com 1.10,2013-06-12 22:02:00,
2013-06-12 16:17:00,100.9,37.0,29.53,ENE,68,9.0,10.0,11,0.00,,,0.00,weatherlink.com 1.10,2013-06-12 22:17:00,
2013-06-12 16:32:00,100.3,37.0,29.52,NW,304,5.0,8.0,11,0.00,,,0.00,weatherlink.com 1.10,2013-06-12 22:32:00,
2013-06-12 16:47:00,101.4,35.0,29.51,East,84,7.0,13.0,10,0.00,,,0.00,weatherlink.com 1.10,2013-06-12 22:47:00,
2013-06-12 17:02:00,102.0,36.0,29.50,SW,232,10.0,11.0,10,0.00,,,0.00,weatherlink.com 1.10,2013-06-12 23:02:00,
2013-06-12 17:17:00,101.0,30.0,29.50,SSE,165,3.0,15.0,8,0.00,,,0.00,weatherlink.com 1.10,2013-06-12 23:17:00,
2013-06-12 17:32:00,101.1,32.0,29.49,NNW,344,10.0,14.0,9,0.00,,,0.00,weatherlink.com 1.10,2013-06-12 23:32:00,
2013-06-12 17:47:00,100.6,32.0,29.49,East,79,5.0,16.0,9,0.00,,,0.00,weatherlink.com 1.10,2013-06-12 23:47:00,
2013-06-12 18:02:00,100.1,32.0,29.49,East,101,4.0,9.0,9,0.00,,,0.00,weatherlink.com 1.10,2013-06-13 00:02:00,
2013-06-12 18:17:00,98.9,33.0,29.50,ENE,63,3.0,16.0,10,0.00,,,0.00,weatherlink.com 1.10,2013-06-13 00:17:00,
2013-06-12 18:32:00,98.0,33.0,29.50,ENE,72,12.0,12.0,10,0.00,,,0.00,weatherlink.com 1.10,2013-06-13 00:32:00,
2013-06-12 18:47:00,97.4,32.0,29.50,WSW,238,2.0,6.0,10,0.00,,,0.00,weatherlink.com 1.10,2013-06-13 00:47:00,
2013-06-12 19:02:00,97.0,32.0,29.51,West,275,1.0,10.0,10,0.00,,,0.00,weatherlink.com 1.10,2013-06-13 01:02:00,
2013-06-12 19:17:00,95.9,33.0,29.51,SW,222,1.0,4.0,11,0.00,,,0.00,weatherlink.com 1.10,2013-06-13 01:17:00,
2013-06-12 19:32:00,96.1,36.0,29.51,WSW,252,1.0,8.0,12,0.00,,,0.00,weatherlink.com 1.10,2013-06-13 01:32:00,
2013-06-12 19:47:00,95.6,37.0,29.52,East,87,1.0,6.0,13,0.00,,,0.00,weatherlink.com 1.10,2013-06-13 01:47:00,
2013-06-12 20:02:00,95.2,39.0,29.52,SSW,195,3.0,9.0,14,0.00,,,0.00,weatherlink.com 1.10,2013-06-13 02:02:00,
2013-06-12 20:17:00,94.2,40.0,29.53,SE,142,4.0,8.0,15,0.00,,,0.00,weatherlink.com 1.10,2013-06-13 02:17:00,
2013-06-12 20:32:00,94.1,38.0,29.53,SE,126,3.0,9.0,14,0.00,,,0.00,weatherlink.com 1.10,2013-06-13 02:32:00,
2013-06-12 20:47:00,93.4,37.0,29.54,ENE,72,8.0,8.0,14,0.00,,,0.00,weatherlink.com 1.10,2013-06-13 02:47:00,
2013-06-12 21:02:00,92.7,35.0,29.55,NW,326,1.0,15.0,13,0.00,,,0.00,weatherlink.com 1.10,2013-06-13 03:02:00,
2013-06-12 21:17:00,92.3,35.0,29.56,ESE,103,4.0,25.0,13,0.00,,,0.00,weatherlink.com 1.10,2013-06-13 03:17:00,
2013-06-12 21:32:00,91.8,36.0,29.57,SE,127,15.0,21.0,14,0.00,,,0.00,weatherlink.com 1.10,2013-06-13 03:32:00,
2013-06-12 21:47:00,91.1,37.0,29.57,East,94,12.0,18.0,15,0.00,,,0.00,weatherlink.com 1.10,2013-06-13 03:47:00,
2013-06-12 22:02:00,90.5,37.0,29.58,East,100,10.0,20.0,15,0.00,,,0.00,weatherlink.com 1.10,2013-06-13 04:02:00,
2013-06-12 22:17:00,89.8,38.0,29.59,ESE,122,17.0,23.0,16,0.00,,,0.00,weatherlink.com 1.10,2013-06-13 04:17:00,
2013-06-12 22:32:00,89.1,39.0,29.59,East,85,9.0,22.0,17,0.00,,,0.00,weatherlink.com 1.10,2013-06-13 04:32:00,
2013-06-12 22:47:00,88.2,41.0,29.60,East,99,15.0,26.0,19,0.00,,,0.00,weatherlink.com 1.10,2013-06-13 04:47:00,
2013-06-12 23:02:00,87.3,43.0,29.59,East,95,22.0,29.0,21,0.00,,,0.00,weatherlink.com 1.10,2013-06-13 05:02:00,
2013-06-12 23:17:00,86.5,43.0,29.60,East,82,17.0,26.0,22,0.00,,,0.00,weatherlink.com 1.10,2013-06-13 05:17:00,
2013-06-12 23:32:00,85.8,44.0,29.60,NNE,27,8.0,21.0,23,0.00,,,0.00,weatherlink.com 1.10,2013-06-13 05:32:00,
2013-06-12 23:47:00,85.4,45.0,29.60,NE,55,11.0,27.0,24,0.00,,,0.00,weatherlink.com 1.10,2013-06-13 05:47:00,